Αρχική σελίδα
METAR-TAF:

METAR-TAF

Αεροδρόμια :

Πόλη του Κουβέιτ, Κουβέιτ

γεωγραφικό πλάτος: 29-13N, γεωγραφικό μήκος: 047-59E, υψόμετρο: 55 μ

Παρών καιρός

Η αναφορά έγινε 52 λεπτά πριν, στις 11:00 UTC
Άνεμος 9 kt από Β
Θερμοκρασία 25°C
Υγρασία 65%
Πίεση 1017 hPa
Ορατότητα 10 χλμ και άνω
Λίγα νέφη σε ύψος 4000 πόδια
Διάσπαρτα νέφη σε ύψος 8000 πόδια

METAR: OKBK 161100Z 35009KT 9999 FEW040 SCT080 25/18 Q1017 NOSIG

Χρόνος: 14:52 (11:52 UTC)

Πρόγνωση Καιρού

Η αναφορά έγινε 1 ώρα και 7 λεπτά πριν, στις 10:45 UTC
Η πρόγνωση ισχύει από τις 16 στις 12 UTC έως τις 17 στις 18 UTC
Άνεμος 8 kt από Β με ριπές μέχρι 18 kt
Ορατότητα: 7000 μ
Διάσπαρτα νέφη σε ύψος 4000 πόδια
Προσωρινά
από 16 στις 21 UTC έως τις 17 στις 03 UTC
Άνεμος 3 kt από μεταβλητές κατευθύνσεις
Ορατότητα: 2000 μ
Αχλής

TAF: OKBK 161045Z 1612/1718 35008G18KT 7000 SCT040 TEMPO 1621/1703 VRB03KT 2000 BR

Μετεωρολογικές αναφορές και προγνώσεις για περισσότερα από 4000 αεροδρόμια (δελτία METAR και TAF).

Οι διαθέσιμοι σταθμοί απεικονίζονται στο χάρτη με κίτρινες και κόκκινες κουκκίδες.

Μετακινήστε το ποντίκι πάνω από τις κουκκίδες για να δείτε το όνομα του σταθμού.

Στη συνέχεια, κάντε κλικ για να δείτε τις μετεωρολογικές αναφορές και τις προγνώσεις καιρού.

Για να αλλάξετε το χάρτη: κάντε κλικ στα πράσινα κουμπιά με τον μαύρο σταυρό για να ζουμάρετε, στο πράσινο κουμπί με την παύλα για να αφαιρέσετε το ζουμ ή στα πράσινα βέλη για να αντιπαραβάλλετε χάρτες.


METAR-TAF: